MSC Krittika — H3RV — position and weather

sailwx.info

Track history (hours):
 
Tides and Currents Weather Stations Pressure Air Temp Water Temp Dewpoint Dewpoint Depression Visibility Wind Speed Wind Dir Waves Ship Positions

MSC Krittika

Last reported at 2016-Mar-14 02:29 UTC. Time now 2016-Jul-30 12:56 UTC.
Position N 01°53' E 102°22'.
Warning: this ship's position is months out of date.

Length 202 m; draft 8.7 m.

Type: Ship (hazmat cat A). MMSI: 354725000.

Date/timePositionNaut miles runAvg speedWind from/ knotsBaromVisibWave heightAir tempDewpointWater temp
2016-Mar-14 02:29N 01°53' E 102°22'1717.3
2016-Mar-14 01:30N 01°46' E 102°37'74 1.5
2016-Mar-11 23:24N 01°16' E 103°45'1 1.3
2016-Mar-11 22:33N 01°16' E 103°46'0 0.1
2016-Mar-11 21:30N 01°16' E 103°46'0 0.1
2016-Mar-11 20:30N 01°16' E 103°46'0 0.0
2016-Mar-11 19:30N 01°16' E 103°46'0 0.0
2016-Mar-11 18:24N 01°16' E 103°46'0 0.0
2016-Mar-11 17:30N 01°16' E 103°46'0 0.0
2016-Mar-11 16:33N 01°16' E 103°46'0 0.0
2016-Mar-11 15:12N 01°16' E 103°46'0 0.0
2016-Mar-11 14:18N 01°16' E 103°46'0 0.1
2016-Mar-11 13:33N 01°16' E 103°46'0 0.0
2016-Mar-11 09:33N 01°16' E 103°46'0 0.0
2016-Mar-11 08:24N 01°16' E 103°46'2 2.3
2016-Mar-11 07:33N 01°15' E 103°45'61 9.6
2016-Mar-11 01:14N 01°38' E 102°48'2917.0
2016-Mar-10 23:32N 01°50' E 102°22'  
2016-Mar-07 13:31N 05°25' E 100°21'22912.4
2016-Mar-06 19:06N 02°03' E 102°08'1017.7
2016-Mar-06 18:31N 01°57' E 102°17'1717.9
2016-Mar-06 17:33N 01°49' E 102°32'1818.1
2016-Mar-06 16:33N 01°41' E 102°48'63 1.5
2016-Mar-04 21:29N 01°16' E 103°46'0 0.0
2016-Mar-04 17:33N 01°16' E 103°46'1 0.5
2016-Mar-04 16:31N 01°17' E 103°45'0 0.0
2016-Mar-04 13:31N 01°17' E 103°45'  
Track history (hours):
 
Tides and Currents Weather Stations Pressure Air Temp Water Temp Dewpoint Dewpoint Depression Visibility Wind Speed Wind Dir Waves Ship Positions

MSC Krittika

Last reported at 2016-Mar-14 02:29 UTC. Time now 2016-Jul-30 12:56 UTC.
Position N 01°53' E 102°22'.
Warning: this ship's position is months out of date.

Length 202 m; draft 8.7 m.

Type: Ship (hazmat cat A). MMSI: 354725000.

Date/timePositionNaut miles runAvg speedWind from/ knotsBaromVisibWave heightAir tempDewpointWater temp
2016-Mar-14 02:29N 01°53' E 102°22'1717.3
2016-Mar-14 01:30N 01°46' E 102°37'74 1.5
2016-Mar-11 23:24N 01°16' E 103°45'1 1.3
2016-Mar-11 22:33N 01°16' E 103°46'0 0.1
2016-Mar-11 21:30N 01°16' E 103°46'0 0.1
2016-Mar-11 20:30N 01°16' E 103°46'0 0.0
2016-Mar-11 19:30N 01°16' E 103°46'0 0.0
2016-Mar-11 18:24N 01°16' E 103°46'0 0.0
2016-Mar-11 17:30N 01°16' E 103°46'0 0.0
2016-Mar-11 16:33N 01°16' E 103°46'0 0.0
2016-Mar-11 15:12N 01°16' E 103°46'0 0.0
2016-Mar-11 14:18N 01°16' E 103°46'0 0.1
2016-Mar-11 13:33N 01°16' E 103°46'0 0.0
2016-Mar-11 09:33N 01°16' E 103°46'0 0.0
2016-Mar-11 08:24N 01°16' E 103°46'2 2.3
2016-Mar-11 07:33N 01°15' E 103°45'61 9.6
2016-Mar-11 01:14N 01°38' E 102°48'2917.0
2016-Mar-10 23:32N 01°50' E 102°22'  
2016-Mar-07 13:31N 05°25' E 100°21'22912.4
2016-Mar-06 19:06N 02°03' E 102°08'1017.7
2016-Mar-06 18:31N 01°57' E 102°17'1717.9
2016-Mar-06 17:33N 01°49' E 102°32'1818.1
2016-Mar-06 16:33N 01°41' E 102°48'63 1.5
2016-Mar-04 21:29N 01°16' E 103°46'0 0.0
2016-Mar-04 17:33N 01°16' E 103°46'1 0.5
2016-Mar-04 16:31N 01°17' E 103°45'0 0.0
2016-Mar-04 13:31N 01°17' E 103°45'  

Dump ship's entire track history